createdAt,value
2018-12-04T00:03:56.855Z,97821.34
2018-12-04T00:06:25.114Z,97818.38
2018-12-04T00:08:53.483Z,97822.02
2018-12-04T00:11:22.044Z,97827.74
2018-12-04T00:13:51.802Z,97849.08
2018-12-04T00:16:20.659Z,97844.75
2018-12-04T00:18:49.269Z,97837.36
2018-12-04T00:21:18.141Z,97832.42
2018-12-04T00:23:46.474Z,97838.89
2018-12-04T00:26:15.263Z,97828.27
2018-12-04T00:28:44.214Z,97835.28
2018-12-04T00:31:12.767Z,97835.25
2018-12-04T00:33:41.385Z,97837.75
2018-12-04T00:36:09.692Z,97846.87
2018-12-04T00:38:38.078Z,97849.95
2018-12-04T00:41:06.380Z,97842.15
2018-12-04T00:43:34.876Z,97837.27
2018-12-04T00:46:03.185Z,97834.68
2018-12-04T00:48:31.473Z,97823.02
2018-12-04T00:50:59.747Z,97822.91
2018-12-04T00:53:28.020Z,97824.33
2018-12-04T00:55:56.323Z,97838.12
2018-12-04T00:58:24.596Z,97851.93
2018-12-04T01:00:52.858Z,97862.66
2018-12-04T01:03:21.583Z,97866.29
2018-12-04T01:05:50.239Z,97875.52
2018-12-04T01:08:18.574Z,97876.11
2018-12-04T01:10:47.363Z,97884.30
2018-12-04T01:13:15.888Z,97894.33
2018-12-04T01:15:44.152Z,97899.85
2018-12-04T01:18:12.549Z,97896.45
2018-12-04T01:20:41.039Z,97900.20
2018-12-04T01:23:09.308Z,97909.30
2018-12-04T01:25:37.571Z,97906.84
2018-12-04T01:28:05.856Z,97911.77
2018-12-04T01:30:34.133Z,97917.25
2018-12-04T01:33:02.844Z,97916.56
2018-12-04T01:35:31.149Z,97907.78
2018-12-04T01:37:59.423Z,97906.28
2018-12-04T01:40:27.743Z,97908.84
2018-12-04T01:42:56.074Z,97909.91
2018-12-04T01:45:24.359Z,97909.09
2018-12-04T01:47:53.413Z,97914.79
2018-12-04T01:50:21.731Z,97917.02
2018-12-04T01:52:49.979Z,97920.53
2018-12-04T01:55:18.316Z,97917.86
2018-12-04T01:57:46.631Z,97917.14
2018-12-04T02:00:15.073Z,97918.20
2018-12-04T02:02:43.351Z,97927.44
2018-12-04T02:05:12.004Z,97925.06
2018-12-04T02:07:40.329Z,97923.34
2018-12-04T02:10:08.834Z,97930.81
2018-12-04T02:12:37.101Z,97934.22
2018-12-04T02:15:05.644Z,97930.48
2018-12-04T02:17:33.948Z,97937.71
2018-12-04T02:20:02.347Z,97935.50
2018-12-04T02:22:30.699Z,97936.77
2018-12-04T02:24:59.546Z,97931.98
2018-12-04T02:27:28.222Z,97936.19
2018-12-04T02:29:56.813Z,97937.58
2018-12-04T02:32:25.062Z,97939.80
2018-12-04T02:34:54.031Z,97943.19
2018-12-04T02:37:22.306Z,97941.47
2018-12-04T02:39:50.652Z,97944.16
2018-12-04T02:45:04.541Z,97944.16
2018-12-04T02:47:33.562Z,97947.91
2018-12-04T02:50:02.168Z,97949.32
2018-12-04T02:52:31.867Z,97955.74
2018-12-04T02:55:00.657Z,97959.95
2018-12-04T02:57:29.258Z,97964.15
2018-12-04T02:59:57.864Z,97955.40
2018-12-04T03:02:26.260Z,97970.37
2018-12-04T03:04:55.747Z,97974.56
2018-12-04T03:07:24.019Z,97972.94
2018-12-04T03:09:52.314Z,97975.98
2018-12-04T03:12:20.963Z,97976.91
2018-12-04T03:14:49.546Z,97983.12
2018-12-04T03:17:18.763Z,97982.39
2018-12-04T03:19:47.129Z,97978.91
2018-12-04T03:22:15.744Z,97979.72
2018-12-04T03:24:44.319Z,97991.06
2018-12-04T03:27:12.607Z,97991.63
2018-12-04T03:29:40.858Z,97990.59
2018-12-04T03:34:54.930Z,97999.23
2018-12-04T03:37:23.294Z,98004.52
2018-12-04T03:39:51.559Z,98017.02
2018-12-04T03:42:21.003Z,98013.16
2018-12-04T03:44:49.274Z,98017.86
2018-12-04T03:47:17.830Z,98021.47
2018-12-04T03:49:46.155Z,98030.24
2018-12-04T03:52:14.742Z,98031.86
2018-12-04T03:57:22.982Z,98040.90
2018-12-04T03:59:51.280Z,98048.03
2018-12-04T04:02:19.548Z,98054.56
2018-12-04T04:04:47.937Z,98060.20
2018-12-04T04:07:16.375Z,98060.41
2018-12-04T04:09:44.647Z,98064.86
2018-12-04T04:12:13.276Z,98061.20
2018-12-04T04:14:41.607Z,98068.91
2018-12-04T04:17:09.909Z,98072.44
2018-12-04T04:19:38.528Z,98082.00
2018-12-04T04:22:07.154Z,98084.25
2018-12-04T04:24:36.526Z,98084.48
2018-12-04T04:27:05.398Z,98089.81
2018-12-04T04:29:33.750Z,98086.19
2018-12-04T04:32:02.043Z,98091.32
2018-12-04T04:34:30.372Z,98098.11
2018-12-04T04:36:58.987Z,98100.19
2018-12-04T04:39:27.287Z,98108.34
2018-12-04T04:41:55.612Z,98111.44
2018-12-04T04:44:23.874Z,98110.38
2018-12-04T04:46:52.175Z,98110.97
2018-12-04T04:49:20.785Z,98109.33
2018-12-04T04:51:49.262Z,98114.33
2018-12-04T04:54:19.888Z,98127.88
2018-12-04T04:56:48.177Z,98127.10
2018-12-04T04:59:16.781Z,98136.69
2018-12-04T05:01:45.671Z,98136.80
2018-12-04T05:04:14.250Z,98140.55
2018-12-04T05:06:42.533Z,98137.77
2018-12-04T05:09:11.227Z,98139.52
2018-12-04T05:11:39.523Z,98146.33
2018-12-04T05:14:07.798Z,98139.80
2018-12-04T05:16:36.092Z,98151.08
2018-12-04T05:19:04.753Z,98155.15
2018-12-04T05:21:33.309Z,98161.59
2018-12-04T05:24:01.578Z,98168.77
2018-12-04T05:26:30.277Z,98175.18
2018-12-04T05:28:58.632Z,98190.53
2018-12-04T05:31:26.842Z,98196.30
2018-12-04T05:33:55.384Z,98208.31
2018-12-04T05:36:24.405Z,98208.68
2018-12-04T05:38:53.070Z,98211.66
2018-12-04T05:41:21.307Z,98210.47
2018-12-04T05:43:49.617Z,98210.58
2018-12-04T05:46:17.927Z,98219.16
2018-12-04T05:48:46.863Z,98227.05
2018-12-04T05:51:15.160Z,98223.38
2018-12-04T05:53:43.781Z,98230.84
2018-12-04T05:56:13.214Z,98235.55
2018-12-04T05:58:41.492Z,98229.31
2018-12-04T06:01:09.794Z,98239.90
2018-12-04T06:03:38.462Z,98241.89
2018-12-04T06:06:06.769Z,98242.28
2018-12-04T06:08:35.513Z,98252.91
2018-12-04T06:11:03.935Z,98240.60
2018-12-04T06:13:32.229Z,98257.00
2018-12-04T06:16:00.699Z,98262.16
2018-12-04T06:18:29.010Z,98259.41
2018-12-04T06:20:57.465Z,98267.25
2018-12-04T06:23:25.795Z,98266.21
2018-12-04T06:25:54.583Z,98263.48
2018-12-04T06:28:22.961Z,98271.62
2018-12-04T06:30:51.238Z,98279.33
2018-12-04T06:33:19.513Z,98281.37
2018-12-04T06:35:48.202Z,98286.09
2018-12-04T06:38:16.472Z,98288.13
2018-12-04T06:40:44.870Z,98294.22
2018-12-04T06:43:13.205Z,98291.28
2018-12-04T06:45:42.330Z,98302.71
2018-12-04T06:48:10.611Z,98314.47
2018-12-04T06:50:39.234Z,98319.08
2018-12-04T06:53:07.635Z,98322.94
2018-12-04T06:55:36.055Z,98329.23
2018-12-04T06:58:04.726Z,98339.87
2018-12-04T07:00:33.070Z,98341.57
2018-12-04T07:03:01.685Z,98347.28
2018-12-04T07:05:29.963Z,98353.78
2018-12-04T07:07:58.341Z,98362.72
2018-12-04T07:10:26.679Z,98366.77
2018-12-04T07:12:55.180Z,98373.53
2018-12-04T07:15:24.089Z,98371.91
2018-12-04T07:17:52.497Z,98380.87
2018-12-04T07:20:21.020Z,98383.06
2018-12-04T07:22:49.330Z,98392.25
2018-12-04T07:25:17.661Z,98392.96
2018-12-04T07:27:45.964Z,98407.00
2018-12-04T07:30:14.500Z,98411.91
2018-12-04T07:32:43.274Z,98420.02
2018-12-04T07:35:11.524Z,98426.92
2018-12-04T07:37:40.121Z,98429.38
2018-12-04T07:40:09.032Z,98447.20
2018-12-04T07:42:37.404Z,98448.59
2018-12-04T07:45:06.482Z,98451.31
2018-12-04T07:47:34.774Z,98455.34
2018-12-04T07:50:03.376Z,98454.69
2018-12-04T07:52:31.743Z,98461.74
2018-12-04T07:55:00.117Z,98467.22
2018-12-04T07:57:29.210Z,98468.70
2018-12-04T07:59:57.514Z,98478.98
2018-12-04T08:02:26.178Z,98481.90
2018-12-04T08:04:54.481Z,98482.53
2018-12-04T08:07:22.754Z,98482.81
2018-12-04T08:09:51.783Z,98487.75
2018-12-04T08:12:20.111Z,98498.00
2018-12-04T08:14:48.721Z,98493.95
2018-12-04T08:17:17.226Z,98501.03
2018-12-04T08:19:45.802Z,98505.49
2018-12-04T08:22:14.111Z,98501.38
2018-12-04T08:24:42.762Z,98513.20
2018-12-04T08:27:16.064Z,98505.14
2018-12-04T08:29:44.496Z,98512.44
2018-12-04T08:32:13.871Z,98519.34
2018-12-04T08:34:42.155Z,98517.77
2018-12-04T08:37:11.010Z,98529.68
2018-12-04T08:39:39.315Z,98537.42
2018-12-04T08:42:07.899Z,98540.38
2018-12-04T08:44:36.205Z,98554.11
2018-12-04T08:47:04.538Z,98567.20
2018-12-04T08:49:33.062Z,98570.81
2018-12-04T08:52:01.384Z,98565.14
2018-12-04T08:54:29.956Z,98566.13
2018-12-04T08:56:58.865Z,98571.30
2018-12-04T08:59:27.791Z,98577.62
2018-12-04T09:01:56.808Z,98598.08
2018-12-04T09:04:25.079Z,98602.25
2018-12-04T09:06:53.436Z,98606.83
2018-12-04T09:12:00.487Z,98626.75
2018-12-04T09:14:28.819Z,98633.89
2018-12-04T09:16:57.755Z,98643.67
2018-12-04T09:19:26.345Z,98647.16
2018-12-04T09:21:55.630Z,98648.58
2018-12-04T09:24:30.509Z,98658.30
2018-12-04T09:26:55.120Z,98658.09
2018-12-04T09:29:23.543Z,98659.07
2018-12-04T09:31:53.132Z,98662.13
2018-12-04T09:34:22.033Z,98669.90
2018-12-04T09:36:50.358Z,98669.99
2018-12-04T09:39:18.777Z,98673.30
2018-12-04T09:41:47.086Z,98670.66
2018-12-04T09:44:15.416Z,98681.80
2018-12-04T09:46:43.765Z,98673.25
2018-12-04T09:49:12.462Z,98678.38
2018-12-04T09:51:41.000Z,98682.55
2018-12-04T09:54:09.586Z,98678.38
2018-12-04T09:56:39.178Z,98681.91
2018-12-04T09:59:07.983Z,98688.81
2018-12-04T10:01:37.169Z,98688.27
2018-12-04T10:04:05.866Z,98694.13
2018-12-04T10:06:34.455Z,98690.22
2018-12-04T10:09:05.167Z,98706.00
2018-12-04T10:11:33.445Z,98702.89
2018-12-04T10:14:01.825Z,98698.91
2018-12-04T10:16:30.123Z,98706.37
2018-12-04T10:18:58.908Z,98704.08
2018-12-04T10:21:27.206Z,98703.11
2018-12-04T10:23:55.680Z,98709.11
2018-12-04T10:26:25.061Z,98705.37
2018-12-04T10:28:53.624Z,98705.68
2018-12-04T10:31:21.981Z,98706.39
2018-12-04T10:33:50.303Z,98707.45
2018-12-04T10:36:18.790Z,98708.59
2018-12-04T10:38:47.091Z,98701.02
2018-12-04T10:41:15.407Z,98705.14
2018-12-04T10:43:44.049Z,98720.84
2018-12-04T10:46:12.378Z,98716.67
2018-12-04T10:48:40.716Z,98718.92
2018-12-04T10:51:09.311Z,98728.41
2018-12-04T10:53:37.596Z,98731.57
2018-12-04T10:56:06.691Z,98726.80
2018-12-04T10:58:35.638Z,98738.40
2018-12-04T11:01:09.573Z,98738.47
2018-12-04T11:03:38.489Z,98736.35
2018-12-04T11:06:07.356Z,98741.41
2018-12-04T11:08:36.139Z,98750.42
2018-12-04T11:11:04.702Z,98752.33
2018-12-04T11:13:33.609Z,98744.79
2018-12-04T11:16:01.925Z,98739.89
2018-12-04T11:18:30.949Z,98748.48
2018-12-04T11:20:59.693Z,98745.67
2018-12-04T11:23:28.606Z,98747.78
2018-12-04T11:25:56.947Z,98748.73
2018-12-04T11:28:25.280Z,98764.00
2018-12-04T11:30:53.672Z,98772.47
2018-12-04T11:33:21.991Z,98775.28
2018-12-04T11:35:50.302Z,98769.25
2018-12-04T11:38:20.508Z,98777.42
2018-12-04T11:40:48.843Z,98782.20
2018-12-04T11:43:18.219Z,98778.42
2018-12-04T11:45:46.774Z,98779.73
2018-12-04T11:48:15.998Z,98775.22
2018-12-04T11:50:44.342Z,98783.66
2018-12-04T11:53:12.682Z,98788.16
2018-12-04T11:55:41.718Z,98785.89
2018-12-04T11:58:09.977Z,98795.60
2018-12-04T12:00:39.445Z,98801.73
2018-12-04T12:03:08.199Z,98805.50
2018-12-04T12:05:36.509Z,98807.37
2018-12-04T12:08:06.944Z,98809.49
2018-12-04T12:10:35.325Z,98809.38
2018-12-04T12:13:03.521Z,98818.12
2018-12-04T12:15:32.113Z,98821.14
2018-12-04T12:18:00.359Z,98817.92
2018-12-04T12:20:29.044Z,98823.72
2018-12-04T12:22:58.039Z,98823.14
2018-12-04T12:25:26.496Z,98823.19
2018-12-04T12:27:55.012Z,98834.52
2018-12-04T12:30:23.277Z,98837.17
2018-12-04T12:32:51.930Z,98843.13
2018-12-04T12:35:20.271Z,98844.96
2018-12-04T12:37:48.705Z,98852.59
2018-12-04T12:40:17.510Z,98850.27
2018-12-04T12:42:46.221Z,98855.33
2018-12-04T12:45:14.647Z,98851.82
2018-12-04T12:47:42.980Z,98856.53
2018-12-04T12:50:11.328Z,98857.17
2018-12-04T12:52:39.650Z,98855.56
2018-12-04T12:55:08.058Z,98859.20
2018-12-04T12:57:36.638Z,98853.32
2018-12-04T13:00:07.424Z,98861.97
2018-12-04T13:02:36.070Z,98855.64
2018-12-04T13:05:04.901Z,98867.92
2018-12-04T13:07:33.209Z,98870.95
2018-12-04T13:10:01.517Z,98875.89
2018-12-04T13:12:30.068Z,98884.12
2018-12-04T13:14:58.728Z,98894.33
2018-12-04T13:17:27.067Z,98889.47
2018-12-04T13:19:55.866Z,98883.15
2018-12-04T13:22:24.726Z,98886.19
2018-12-04T13:24:53.651Z,98879.22
2018-12-04T13:27:22.339Z,98893.56
2018-12-04T13:29:51.179Z,98894.13
2018-12-04T13:32:19.780Z,98901.13
2018-12-04T13:34:48.107Z,98897.38
2018-12-04T13:37:16.461Z,98900.12
2018-12-04T13:39:44.742Z,98896.92
2018-12-04T13:42:13.295Z,98901.86
2018-12-04T13:44:41.894Z,98904.80
2018-12-04T13:47:10.594Z,98918.23
2018-12-04T13:49:38.995Z,98930.17
2018-12-04T13:52:07.977Z,98926.36
2018-12-04T13:54:37.376Z,98935.14
2018-12-04T13:57:06.542Z,98945.53
2018-12-04T13:59:35.015Z,98944.19
2018-12-04T14:02:03.720Z,98950.44
2018-12-04T14:04:32.034Z,98928.91
2018-12-04T14:07:00.476Z,98934.33
2018-12-04T14:09:29.155Z,98948.83
2018-12-04T14:11:57.531Z,98957.64
2018-12-04T14:14:26.357Z,98959.52
2018-12-04T14:16:55.831Z,98959.83
2018-12-04T14:19:24.681Z,98971.59
2018-12-04T14:21:53.342Z,98964.89
2018-12-04T14:24:22.550Z,98969.70
2018-12-04T14:26:51.486Z,98964.31
2018-12-04T14:29:20.168Z,98965.17
2018-12-04T14:31:49.118Z,98971.27
2018-12-04T14:34:19.185Z,98981.44
2018-12-04T14:36:47.653Z,98977.14
2018-12-04T14:39:16.285Z,98978.48
2018-12-04T14:41:44.607Z,98992.08
2018-12-04T14:44:13.274Z,98992.40
2018-12-04T14:46:42.009Z,98999.41
2018-12-04T14:49:10.993Z,99000.67
2018-12-04T14:51:39.273Z,99006.73
2018-12-04T14:54:07.949Z,99013.05
2018-12-04T14:56:36.686Z,99018.16
2018-12-04T14:59:05.069Z,99027.83
2018-12-04T15:01:33.902Z,99029.35
2018-12-04T15:04:02.583Z,99030.17
2018-12-04T15:06:30.907Z,99035.16
2018-12-04T15:08:59.279Z,99031.41
2018-12-04T15:11:31.310Z,99040.97
2018-12-04T15:13:59.898Z,99046.78
2018-12-04T15:16:28.627Z,99049.22
2018-12-04T15:18:57.122Z,99051.86
2018-12-04T15:21:25.430Z,99051.19
2018-12-04T15:23:54.278Z,99059.52
2018-12-04T15:26:22.779Z,99060.95
2018-12-04T15:28:51.390Z,99060.95
2018-12-04T15:31:19.650Z,99067.20
2018-12-04T15:33:48.354Z,99069.38
2018-12-04T15:36:16.830Z,99075.49
2018-12-04T15:38:45.560Z,99075.73
2018-12-04T15:41:14.263Z,99085.44
2018-12-04T15:43:43.299Z,99098.44
2018-12-04T15:46:11.834Z,99095.77
2018-12-04T15:48:40.600Z,99106.41
2018-12-04T15:51:09.428Z,99099.60
2018-12-04T15:53:37.768Z,99111.57
2018-12-04T15:56:06.450Z,99104.53
2018-12-04T15:58:34.752Z,99105.67
2018-12-04T16:01:03.091Z,99115.69
2018-12-04T16:03:31.657Z,99112.41
2018-12-04T16:05:59.970Z,99115.06
2018-12-04T16:08:28.354Z,99126.17
2018-12-04T16:10:56.854Z,99128.73
2018-12-04T16:13:25.303Z,99125.34
2018-12-04T16:15:53.575Z,99131.41
2018-12-04T16:18:21.945Z,99137.59
2018-12-04T16:20:50.823Z,99143.55
2018-12-04T16:23:19.165Z,99150.45
2018-12-04T16:25:47.872Z,99154.07
2018-12-04T16:28:16.103Z,99150.44
2018-12-04T16:30:44.483Z,99153.78
2018-12-04T16:33:12.905Z,99149.38
2018-12-04T16:35:41.454Z,99154.19
2018-12-04T16:38:10.130Z,99156.48
2018-12-04T16:40:38.853Z,99163.23
2018-12-04T16:43:07.535Z,99157.47
2018-12-04T16:45:36.221Z,99165.33
2018-12-04T16:48:04.592Z,99164.45
2018-12-04T16:50:32.887Z,99183.20
2018-12-04T16:53:01.530Z,99173.83
2018-12-04T16:55:30.619Z,99180.19
2018-12-04T16:57:58.954Z,99179.66
2018-12-04T17:00:27.244Z,99174.68
2018-12-04T17:02:55.570Z,99177.94
2018-12-04T17:05:23.745Z,99186.72
2018-12-04T17:07:51.992Z,99187.34
2018-12-04T17:10:22.585Z,99190.61
2018-12-04T17:12:50.578Z,99192.46
2018-12-04T17:15:18.928Z,99199.13
2018-12-04T17:17:47.278Z,99200.98
2018-12-04T17:20:15.596Z,99194.45
2018-12-04T17:22:43.935Z,99209.18
2018-12-04T17:25:13.222Z,99208.52
2018-12-04T17:27:42.435Z,99213.72
2018-12-04T17:30:11.648Z,99225.68
2018-12-04T17:32:40.183Z,99223.48
2018-12-04T17:35:08.527Z,99232.52
2018-12-04T17:37:36.859Z,99230.41
2018-12-04T17:40:06.201Z,99225.41
2018-12-04T17:42:34.882Z,99236.48
2018-12-04T17:45:03.819Z,99238.52
2018-12-04T17:47:32.193Z,99244.65
2018-12-04T17:50:00.450Z,99243.06
2018-12-04T17:52:29.090Z,99244.66
2018-12-04T17:54:57.315Z,99250.83
2018-12-04T17:57:25.869Z,99251.63
2018-12-04T17:59:54.123Z,99251.44
2018-12-04T18:02:24.790Z,99262.70
2018-12-04T18:04:53.150Z,99254.69
2018-12-04T18:10:02.755Z,99249.64
2018-12-04T18:12:31.217Z,99249.14
2018-12-04T18:15:02.347Z,99243.37
2018-12-04T18:17:31.069Z,99251.05
2018-12-04T18:20:00.179Z,99250.28
2018-12-04T18:22:28.901Z,99247.86
2018-12-04T18:24:57.298Z,99240.30
2018-12-04T18:27:25.691Z,99244.33
2018-12-04T18:29:54.141Z,99252.31
2018-12-04T18:32:22.959Z,99256.95
2018-12-04T18:34:51.690Z,99266.05
2018-12-04T18:37:21.905Z,99267.39
2018-12-04T18:39:50.875Z,99267.00
2018-12-04T18:42:19.178Z,99266.06
2018-12-04T18:44:47.740Z,99268.98
2018-12-04T18:47:16.240Z,99267.20
2018-12-04T18:49:44.488Z,99275.91
2018-12-04T18:52:13.348Z,99276.92
2018-12-04T18:54:41.734Z,99286.28
2018-12-04T18:57:10.530Z,99295.82
2018-12-04T18:59:39.678Z,99295.30
2018-12-04T19:02:08.000Z,99296.22
2018-12-04T19:04:36.992Z,99293.97
2018-12-04T19:07:05.675Z,99294.59
2018-12-04T19:09:34.270Z,99281.87
2018-12-04T19:12:02.538Z,99276.66
2018-12-04T19:14:30.824Z,99281.20
2018-12-04T19:16:59.678Z,99281.00
2018-12-04T19:19:27.999Z,99278.30
2018-12-04T19:21:56.270Z,99290.17
2018-12-04T19:24:25.351Z,99286.59
2018-12-04T19:26:54.044Z,99282.88
2018-12-04T19:29:22.910Z,99285.59
2018-12-04T19:31:51.230Z,99282.41
2018-12-04T19:34:20.909Z,99284.52
2018-12-04T19:36:49.731Z,99285.98
2018-12-04T19:39:18.318Z,99283.48
2018-12-04T19:41:47.894Z,99287.19
2018-12-04T19:44:16.514Z,99288.59
2018-12-04T19:49:22.663Z,99283.03
2018-12-04T19:51:50.966Z,99278.04
2018-12-04T19:54:20.431Z,99285.88
2018-12-04T19:56:48.690Z,99293.42
2018-12-04T19:59:17.252Z,99297.97
2018-12-04T20:01:46.402Z,99300.37
2018-12-04T20:04:15.939Z,99299.45
2018-12-04T20:06:44.767Z,99296.58
2018-12-04T20:09:13.706Z,99304.25
2018-12-04T20:11:42.587Z,99306.56
2018-12-04T20:14:11.324Z,99300.84
2018-12-04T20:16:39.543Z,99297.66
2018-12-04T20:19:08.996Z,99304.33
2018-12-04T20:21:37.222Z,99301.09
2018-12-04T20:24:05.697Z,99302.45
2018-12-04T20:26:34.877Z,99306.69
2018-12-04T20:29:03.138Z,99303.88
2018-12-04T20:31:31.681Z,99306.36
2018-12-04T20:34:01.808Z,99308.99
2018-12-04T20:36:32.146Z,99306.31
2018-12-04T20:39:00.687Z,99298.97
2018-12-04T20:41:33.136Z,99303.31
2018-12-04T20:44:01.513Z,99319.94
2018-12-04T20:46:33.782Z,99324.30
2018-12-04T20:49:02.385Z,99328.37
2018-12-04T20:51:31.034Z,99329.36
2018-12-04T20:53:59.449Z,99331.39
2018-12-04T20:56:28.895Z,99331.20
2018-12-04T20:58:58.149Z,99330.76
2018-12-04T21:01:33.134Z,99343.31
2018-12-04T21:04:01.742Z,99346.14
2018-12-04T21:06:30.143Z,99350.49
2018-12-04T21:08:58.702Z,99349.14
2018-12-04T21:11:27.308Z,99353.59
2018-12-04T21:13:55.522Z,99350.14
2018-12-04T21:16:24.136Z,99358.98
2018-12-04T21:18:52.495Z,99355.09
2018-12-04T21:21:20.766Z,99348.42
2018-12-04T21:23:49.480Z,99353.48
2018-12-04T21:26:18.119Z,99351.66
2018-12-04T21:28:52.147Z,99349.88
2018-12-04T21:31:26.418Z,99344.19
2018-12-04T21:34:00.468Z,99348.91
2018-12-04T21:36:34.550Z,99342.39
2018-12-04T21:39:10.914Z,99348.65
2018-12-04T21:41:45.692Z,99346.91
2018-12-04T21:44:19.788Z,99345.72
2018-12-04T21:46:54.509Z,99348.59
2018-12-04T21:49:24.162Z,99350.03
2018-12-04T21:51:53.264Z,99352.98
2018-12-04T21:54:21.790Z,99363.98
2018-12-04T21:56:50.348Z,99362.74
2018-12-04T21:59:18.803Z,99363.46
2018-12-04T22:01:47.484Z,99372.94
2018-12-04T22:04:15.858Z,99381.28
2018-12-04T22:06:44.865Z,99379.17
2018-12-04T22:09:13.249Z,99378.36
2018-12-04T22:11:43.484Z,99371.13
2018-12-04T22:14:11.900Z,99371.34
2018-12-04T22:16:40.112Z,99377.17
2018-12-04T22:19:08.703Z,99374.45
2018-12-04T22:21:37.081Z,99381.52
2018-12-04T22:24:06.613Z,99377.48
2018-12-04T22:26:35.327Z,99376.89
2018-12-04T22:29:05.607Z,99379.48
2018-12-04T22:31:33.825Z,99385.05
2018-12-04T22:34:03.917Z,99380.77
2018-12-04T22:36:32.803Z,99379.61
2018-12-04T22:39:01.323Z,99377.89
2018-12-04T22:41:29.900Z,99372.89
2018-12-04T22:43:58.753Z,99375.94
2018-12-04T22:46:27.359Z,99376.57
2018-12-04T22:48:55.559Z,99374.53
2018-12-04T22:51:24.008Z,99371.77
2018-12-04T22:53:52.654Z,99378.25
2018-12-04T22:56:21.108Z,99386.59
2018-12-04T22:58:49.930Z,99395.47
2018-12-04T23:01:40.670Z,99398.93
2018-12-04T23:04:09.018Z,99401.66
2018-12-04T23:06:38.336Z,99393.66
2018-12-04T23:09:10.213Z,99396.81
2018-12-04T23:11:40.704Z,99393.14
2018-12-04T23:14:09.213Z,99392.55
2018-12-04T23:16:38.785Z,99401.06
2018-12-04T23:19:08.601Z,99401.50
2018-12-04T23:24:16.564Z,99386.55
2018-12-04T23:26:45.254Z,99381.53
2018-12-04T23:29:13.610Z,99378.59
2018-12-04T23:31:41.965Z,99379.80
2018-12-04T23:34:10.669Z,99376.41
2018-12-04T23:36:38.966Z,99376.96
2018-12-04T23:39:07.787Z,99383.06
2018-12-04T23:41:36.087Z,99371.41
2018-12-04T23:44:04.622Z,99369.59
2018-12-04T23:46:33.293Z,99368.02
2018-12-04T23:49:01.618Z,99354.19
2018-12-04T23:51:30.234Z,99351.30
2018-12-04T23:53:58.409Z,99348.86
2018-12-04T23:56:26.741Z,99346.75
